Time;durP1;ratioP1;P1;durP2;ratioP2;P2;SDS_P1;SDS_P2;PMS_P1;PMS_P2;Temp;Humidity;BMP_temperature;BMP_pressure;BME280_temperature;BME280_humidity;BME280_pressure;Samples;Min_cycle;Max_cycle;Signal;HPM_P1;HPM_P2
2023/06/17 00:01:48;;;;;;;1.53;1.43;;;;;;;15.16;100.00;100394.97;4994250;28;20221;-90
2023/06/17 00:04:13;;;;;;;0.27;0.27;;;;;;;15.15;100.00;100390.63;4994294;28;20194;-91
2023/06/17 00:06:39;;;;;;;0.40;0.40;;;;;;;15.06;100.00;100381.69;4994371;28;20199;-91
2023/06/17 00:09:04;;;;;;;0.70;0.70;;;;;;;15.01;100.00;100390.16;4993476;28;20212;-90
2023/06/17 00:11:30;;;;;;;1.03;1.03;;;;;;;14.96;100.00;100381.34;4994529;28;20185;-91
2023/06/17 00:13:56;;;;;;;2.17;2.03;;;;;;;14.88;100.00;100383.03;4994246;28;20724;-91
2023/06/17 00:16:22;;;;;;;5.87;3.87;;;;;;;14.87;100.00;100375.94;4993994;28;20173;-91
2023/06/17 00:18:47;;;;;;;3.27;3.07;;;;;;;14.89;100.00;100382.69;4993067;28;20203;-91
2023/06/17 00:21:18;;;;;;;0.87;0.87;;;;;;;14.89;100.00;100379.94;4993542;28;20204;-90
2023/06/17 00:23:44;;;;;;;0.93;0.93;;;;;;;14.89;100.00;100376.38;4993918;28;20176;-90
2023/06/17 00:26:09;;;;;;;1.27;1.20;;;;;;;14.97;100.00;100377.44;4994322;28;20185;-90
2023/06/17 00:28:35;;;;;;;12.93;1.57;;;;;;;14.98;100.00;100385.34;4993232;28;20208;-90
2023/06/17 00:31:01;;;;;;;1.33;1.33;;;;;;;14.96;100.00;100381.34;4993334;28;20188;-89
2023/06/17 00:33:29;;;;;;;0.50;0.40;;;;;;;14.92;100.00;100380.44;4993140;28;20704;-90
2023/06/17 00:35:55;;;;;;;1.43;1.33;;;;;;;14.87;100.00;100378.69;4993110;28;20191;-89
2023/06/17 00:38:20;;;;;;;2.20;2.10;;;;;;;14.87;100.00;100378.69;4990468;28;20565;-90
2023/06/17 00:40:48;;;;;;;1.80;1.70;;;;;;;14.81;100.00;100375.34;4989653;28;20216;-90
2023/06/17 00:43:13;;;;;;;1.27;1.20;;;;;;;14.82;100.00;100381.66;4989421;28;20191;-90
2023/06/17 00:45:39;;;;;;;3.50;3.30;;;;;;;14.79;100.00;100374.91;4992771;28;20177;-90
2023/06/17 00:48:10;;;;;;;5.70;2.57;;;;;;;14.76;100.00;100370.09;4992131;28;20181;-91
2023/06/17 00:50:36;;;;;;;2.00;1.87;;;;;;;14.81;100.00;100372.59;4993248;28;20204;-91
2023/06/17 00:53:02;;;;;;;2.30;2.20;;;;;;;14.85;100.00;100369.97;4992860;28;20607;-90
2023/06/17 00:55:28;;;;;;;6.10;1.70;;;;;;;14.86;100.00;100368.81;4991547;28;20659;-90
2023/06/17 00:57:53;;;;;;;2.73;2.63;;;;;;;14.79;100.00;100361.16;4992478;28;20192;-90
2023/06/17 01:00:27;;;;;;;2.27;2.17;;;;;;;14.80;100.00;100364.69;4992496;28;20733;-90
2023/06/17 01:02:56;;;;;;;8.30;4.33;;;;;;;14.71;100.00;100361.22;4992990;28;20169;-90
2023/06/17 01:05:29;;;;;;;1.73;1.63;;;;;;;14.80;100.00;100359.19;4992061;28;20187;-90
2023/06/17 01:08:12;;;;;;;2.73;2.53;;;;;;;14.78;100.00;100354.03;4991856;28;20177;-90
2023/06/17 01:11:09;;;;;;;1.57;1.47;;;;;;;14.76;100.00;100353.59;4992100;28;20611;-90
2023/06/17 01:13:35;;;;;;;8.23;3.17;;;;;;;14.78;100.00;100350.50;4980268;28;20225;-91
2023/06/17 01:16:02;;;;;;;1.00;1.00;;;;;;;14.73;100.00;100340.50;4991879;28;20231;-90
2023/06/17 01:18:29;;;;;;;3.10;2.90;;;;;;;14.66;100.00;100348.53;4991586;28;20223;-89
2023/06/17 01:20:58;;;;;;;1.27;1.10;;;;;;;14.63;100.00;100335.47;4992745;28;20195;-90
2023/06/17 01:23:32;;;;;;;1.03;1.03;;;;;;;14.67;100.00;100347.38;4992585;28;20189;-90
2023/06/17 01:25:58;;;;;;;2.60;2.47;;;;;;;14.73;100.00;100348.75;4989777;28;20189;-90
2023/06/17 01:28:24;;;;;;;0.83;0.83;;;;;;;14.75;100.00;100349.19;4990395;28;20209;-90
2023/06/17 01:30:54;;;;;;;1.17;1.17;;;;;;;14.74;100.00;100350.34;5008309;28;20331;-90
2023/06/17 01:33:24;;;;;;;3.13;2.83;;;;;;;14.73;100.00;100343.25;5008290;28;20213;-89
2023/06/17 01:36:09;;;;;;;2.17;2.07;;;;;;;14.70;100.00;100349.44;4991783;28;20173;-89
2023/06/17 01:38:41;;;;;;;2.70;2.53;;;;;;;14.75;100.00;100349.19;5008469;28;20212;-90
2023/06/17 01:41:25;;;;;;;2.23;2.13;;;;;;;14.71;100.00;100348.28;4992359;28;20181;-90
2023/06/17 01:43:54;;;;;;;2.17;2.07;;;;;;;14.68;100.00;100346.22;4981927;28;20247;-90
2023/06/17 01:46:20;;;;;;;2.33;2.20;;;;;;;14.64;100.00;100341.75;4988695;28;20220;-90
2023/06/17 01:48:47;;;;;;;0.70;0.70;;;;;;;14.60;100.00;100344.38;4991095;28;20710;-89
2023/06/17 01:51:15;;;;;;;2.53;2.37;;;;;;;14.51;100.00;100338.97;4991723;28;20181;-90
2023/06/17 01:53:43;;;;;;;1.70;1.60;;;;;;;14.52;100.00;100342.53;4984005;28;20223;-90
2023/06/17 01:56:09;;;;;;;3.73;3.47;;;;;;;14.51;100.00;100338.19;4992228;28;20189;-89
2023/06/17 01:58:35;;;;;;;1.97;1.67;;;;;;;14.52;100.00;100345.28;4990708;28;20224;-90
2023/06/17 02:01:01;;;;;;;5.90;3.30;;;;;;;14.47;100.00;100334.50;4993940;28;20181;-91
2023/06/17 02:03:26;;;;;;;2.07;1.97;;;;;;;14.44;100.00;100332.41;4994945;28;20199;-89
2023/06/17 02:05:51;;;;;;;3.07;2.70;;;;;;;14.41;100.00;100331.13;5012005;28;20212;-90
2023/06/17 02:08:17;;;;;;;2.50;2.40;;;;;;;14.43;100.00;100328.03;4994554;28;20197;-90
2023/06/17 02:10:42;;;;;;;3.73;3.43;;;;;;;14.39;100.00;100327.13;4995497;28;20209;-90
2023/06/17 02:13:08;;;;;;;3.97;2.90;;;;;;;14.30;100.00;100328.00;4995591;28;20197;-90
2023/06/17 02:15:38;;;;;;;3.87;3.63;;;;;;;14.30;100.00;100319.75;4996904;28;20181;-90
2023/06/17 02:18:04;;;;;;;1.73;1.63;;;;;;;14.37;100.00;100324.72;4995178;28;20252;-89
2023/06/17 02:20:29;;;;;;;1.90;1.80;;;;;;;14.41;100.00;100330.31;4995832;28;20651;-90
2023/06/17 02:22:57;;;;;;;0.43;0.43;;;;;;;14.44;100.00;100322.22;4996428;28;20540;-90
2023/06/17 02:25:23;;;;;;;3.40;3.10;;;;;;;14.44;100.00;100329.66;4994887;28;20181;-89
2023/06/17 02:27:51;;;;;;;1.63;1.53;;;;;;;14.46;100.00;100324.63;4995643;28;20177;-89
2023/06/17 02:30:17;;;;;;;1.07;1.03;;;;;;;14.44;100.00;100324.97;4996406;28;20192;-89
2023/06/17 02:32:42;;;;;;;3.03;2.83;;;;;;;14.47;100.00;100320.75;4997753;28;20628;-91
2023/06/17 02:35:10;;;;;;;6.50;3.20;;;;;;;14.42;100.00;100321.72;4999310;28;20185;-90
2023/06/17 02:37:40;;;;;;;1.93;1.80;;;;;;;14.37;100.00;100318.41;4994638;28;20185;-91
2023/06/17 02:40:08;;;;;;;1.27;1.17;;;;;;;14.36;100.00;100323.09;4995275;28;20209;-90
2023/06/17 02:42:34;;;;;;;3.97;3.67;;;;;;;14.37;100.00;100326.66;4993847;28;20185;-90
2023/06/17 02:45:00;;;;;;;2.70;2.57;;;;;;;14.32;100.00;100327.69;4991026;28;20568;-90
2023/06/17 02:47:25;;;;;;;1.00;1.00;;;;;;;14.28;100.00;100326.72;4992789;28;20189;-90
2023/06/17 02:49:50;;;;;;;0.23;0.23;;;;;;;14.23;100.00;100333.25;4996984;28;20217;-90
2023/06/17 02:52:16;;;;;;;0.20;0.20;;;;;;;14.24;100.00;100342.31;5002450;28;20209;-90
2023/06/17 02:54:42;;;;;;;0.00;0.00;;;;;;;14.28;100.00;100343.22;5002153;28;20180;-90
2023/06/17 02:57:08;;;;;;;0.00;0.00;;;;;;;14.27;100.00;100330.63;5003395;28;20285;-90
2023/06/17 02:59:35;;;;;;;0.13;0.13;;;;;;;14.22;100.00;100334.41;4999518;28;20212;-90
2023/06/17 03:02:01;;;;;;;0.10;0.10;;;;;;;14.11;100.00;100333.22;4995079;28;20674;-90
2023/06/17 03:04:34;;;;;;;0.07;0.07;;;;;;;14.05;100.00;100339.25;4994440;28;20185;-90
2023/06/17 03:07:12;;;;;;;21.17;1.57;;;;;;;13.95;100.00;100341.28;4994150;28;20227;-90
2023/06/17 03:09:37;;;;;;;2.90;2.70;;;;;;;13.67;100.00;100326.47;4993438;28;20679;-89
2023/06/17 03:12:05;;;;;;;1.50;1.00;;;;;;;13.52;100.00;100325.13;4992383;28;20197;-90
2023/06/17 03:14:36;;;;;;;2.73;2.57;;;;;;;13.44;100.00;100327.94;4993600;28;20185;-90
2023/06/17 03:17:03;;;;;;;4.13;3.83;;;;;;;13.42;100.00;100332.94;4993505;28;20177;-89
2023/06/17 03:19:28;;;;;;;3.53;3.30;;;;;;;13.43;100.00;100332.63;4992711;28;20205;-89
2023/06/17 03:21:54;;;;;;;2.13;1.93;;;;;;;13.42;100.00;100333.75;4993585;28;20243;-90
2023/06/17 03:24:19;;;;;;;16.47;3.63;;;;;;;13.44;100.00;100325.19;4995730;28;20271;-90
2023/06/17 03:26:45;;;;;;;1.37;1.37;;;;;;;13.47;100.00;100330.84;4995006;28;20189;-89
2023/06/17 03:29:10;;;;;;;3.03;2.83;;;;;;;13.47;100.00;100330.84;4990742;28;20337;-90
2023/06/17 03:31:36;;;;;;;2.30;2.10;;;;;;;13.50;100.00;100332.91;4992445;28;20186;-90
2023/06/17 03:34:02;;;;;;;1.80;1.70;;;;;;;13.51;100.00;100334.50;4993340;28;20217;-90
2023/06/17 03:36:30;;;;;;;0.77;0.77;;;;;;;13.51;100.00;100328.22;4991676;28;20185;-89
2023/06/17 03:38:58;;;;;;;0.40;0.40;;;;;;;13.59;100.00;100328.13;4992862;28;20232;-90
2023/06/17 03:41:31;;;;;;;0.77;0.67;;;;;;;13.64;100.00;100333.44;4992853;28;20181;-90
2023/06/17 03:43:57;;;;;;;0.00;0.00;;;;;;;13.70;100.00;100326.59;4993045;28;20193;-90
2023/06/17 03:46:22;;;;;;;1.27;1.17;;;;;;;13.75;100.00;100335.81;4993017;28;20311;-89
2023/06/17 03:48:47;;;;;;;1.40;1.30;;;;;;;13.79;100.00;100328.50;4989491;28;20218;-89
2023/06/17 03:51:18;;;;;;;0.80;0.80;;;;;;;13.84;100.00;100331.03;4993548;28;20196;-90
2023/06/17 03:53:46;;;;;;;1.10;0.83;;;;;;;13.88;100.00;100330.00;4992921;28;20201;-90
2023/06/17 03:56:13;;;;;;;2.03;1.93;;;;;;;13.91;100.00;100334.06;4993924;28;20181;-90
2023/06/17 03:58:38;;;;;;;2.57;0.50;;;;;;;13.99;100.00;100341.41;4993849;28;20209;-90
2023/06/17 04:01:06;;;;;;;1.17;1.17;;;;;;;14.01;100.00;100330.88;4994070;28;20181;-90
2023/06/17 04:03:31;;;;;;;1.17;1.10;;;;;;;14.06;100.00;100329.88;4993835;28;20177;-90
2023/06/17 04:05:57;;;;;;;1.60;1.50;;;;;;;14.17;100.00;100336.53;4993853;28;20658;-89
2023/06/17 04:08:23;;;;;;;1.73;1.63;;;;;;;14.20;100.00;100324.91;4994053;28;20216;-90
2023/06/17 04:10:51;;;;;;;1.30;1.03;;;;;;;14.26;100.00;100334.50;4993512;28;20192;-90
2023/06/17 04:13:17;;;;;;;0.93;0.93;;;;;;;14.30;100.00;100333.50;4992772;28;20299;-90
2023/06/17 04:15:42;;;;;;;0.80;0.80;;;;;;;14.40;100.00;100329.53;4992574;28;20231;-92
2023/06/17 04:18:08;;;;;;;2.13;2.03;;;;;;;14.30;100.00;100329.94;4988753;28;20202;-89
2023/06/17 04:20:38;;;;;;;0.37;0.37;;;;;;;14.32;100.00;100333.19;4991371;28;20184;-90
2023/06/17 04:23:04;;;;;;;1.27;1.17;;;;;;;14.32;100.00;100346.09;4992029;28;20647;-90
2023/06/17 04:25:42;;;;;;;2.07;1.97;;;;;;;14.32;100.00;100335.09;4992224;28;20328;-90
2023/06/17 04:28:08;;;;;;;6.43;4.33;;;;;;;14.30;100.00;100336.25;4993400;28;20707;-90
2023/06/17 04:30:34;;;;;;;1.37;1.37;;;;;;;14.31;100.00;100326.06;4992610;28;20231;-89
2023/06/17 04:33:03;;;;;;;5.23;3.37;;;;;;;14.32;100.00;100322.19;4992385;28;20197;-90
2023/06/17 04:35:29;;;;;;;3.13;2.90;;;;;;;14.39;100.00;100316.91;4984513;28;20564;-90
2023/06/17 04:37:58;;;;;;;1.50;1.40;;;;;;;14.37;100.00;100327.47;4991910;28;20181;-90
2023/06/17 04:40:26;;;;;;;3.10;2.93;;;;;;;14.43;100.00;100333.53;5008362;28;20181;-90
2023/06/17 04:42:57;;;;;;;7.10;2.70;;;;;;;14.41;100.00;100335.81;4992031;28;20177;-90
2023/06/17 04:45:23;;;;;;;2.37;2.23;;;;;;;14.39;100.00;100340.84;4991886;28;20185;-89
2023/06/17 04:47:52;;;;;;;1.13;1.13;;;;;;;14.39;100.00;100338.91;4991440;28;20594;-88
2023/06/17 04:50:17;;;;;;;6.47;2.47;;;;;;;14.36;100.00;100330.56;5008002;28;20197;-89
2023/06/17 04:52:44;;;;;;;1.83;1.73;;;;;;;14.43;100.00;100344.53;4992074;28;20215;-90
2023/06/17 04:55:21;;;;;;;2.43;2.33;;;;;;;14.44;100.00;100333.22;4992440;28;20658;-90
2023/06/17 04:57:57;;;;;;;1.73;1.73;;;;;;;14.57;100.00;100332.09;4984298;28;20189;-90
2023/06/17 05:00:22;;;;;;;5.20;1.20;;;;;;;14.64;100.00;100339.00;4991375;28;20199;-90
2023/06/17 05:02:55;;;;;;;2.13;2.03;;;;;;;14.69;100.00;100336.84;4991195;28;20218;-90
2023/06/17 05:05:21;;;;;;;0.93;0.93;;;;;;;14.77;100.00;100349.69;4991983;28;20191;-89
2023/06/17 05:07:55;;;;;;;1.10;1.10;;;;;;;14.84;100.00;100336.16;5007754;28;20185;-90
2023/06/17 05:10:26;;;;;;;1.97;1.80;;;;;;;14.82;100.00;100340.41;5008053;28;20192;-90
2023/06/17 05:12:51;;;;;;;2.43;2.30;;;;;;;14.88;100.00;100341.78;4991248;28;20209;-90
2023/06/17 05:15:19;;;;;;;0.87;0.87;;;;;;;14.85;100.00;100345.22;4991391;28;20183;-90
2023/06/17 05:17:45;;;;;;;0.47;0.47;;;;;;;14.87;100.00;100335.47;4991668;28;20663;-90
2023/06/17 05:20:13;;;;;;;2.70;2.53;;;;;;;15.01;100.00;100337.88;4991641;28;20264;-90
2023/06/17 05:22:41;;;;;;;0.10;0.10;;;;;;;15.17;100.00;100340.75;4991775;28;20179;-90
2023/06/17 05:25:09;;;;;;;1.63;1.53;;;;;;;15.40;100.00;100350.16;5008220;28;20207;-90
2023/06/17 05:27:43;;;;;;;2.90;2.53;;;;;;;15.43;100.00;100341.19;4991158;28;20193;-90
2023/06/17 05:30:22;;;;;;;1.40;1.37;;;;;;;15.52;100.00;100340.28;4991818;28;20648;-90
2023/06/17 05:32:55;;;;;;;4.13;3.77;;;;;;;15.43;100.00;100338.44;5009417;28;20236;-90
2023/06/17 05:35:20;;;;;;;2.80;2.60;;;;;;;15.46;100.00;100331.44;4993289;28;20189;-90
2023/06/17 05:37:46;;;;;;;1.13;1.10;;;;;;;15.57;100.00;100351.03;4995427;28;20185;-90
2023/06/17 05:40:20;;;;;;;0.97;0.97;;;;;;;15.55;100.00;100342.31;4995384;28;20269;-90
2023/06/17 05:42:45;;;;;;;1.87;1.80;;;;;;;15.60;100.00;100339.34;4984951;28;20190;-89
2023/06/17 05:45:10;;;;;;;2.20;2.10;;;;;;;15.62;100.00;100345.31;4991485;28;20544;-90
2023/06/17 05:47:36;;;;;;;0.00;0.00;;;;;;;15.70;100.00;100347.13;4995012;28;20259;-89
2023/06/17 05:50:01;;;;;;;5.07;4.60;;;;;;;15.66;100.00;100355.31;4995006;28;20223;-90
2023/06/17 05:52:27;;;;;;;0.20;0.20;;;;;;;15.65;100.00;100350.16;4995132;28;20197;-90
2023/06/17 05:54:57;;;;;;;1.77;1.67;;;;;;;15.61;100.00;100352.78;4995508;28;20185;-90
2023/06/17 05:57:26;;;;;;;2.83;2.70;;;;;;;15.65;100.00;100350.94;4995511;28;20283;-90
2023/06/17 06:00:03;;;;;;;5.30;4.63;;;;;;;15.57;100.00;100364.81;4996833;28;20557;-90
2023/06/17 06:02:28;;;;;;;0.27;0.27;;;;;;;15.64;100.00;100365.06;4995856;28;20223;-90
2023/06/17 06:04:56;;;;;;;0.20;0.13;;;;;;;15.56;100.00;100364.00;4994748;28;20556;-90
2023/06/17 06:07:21;;;;;;;4.20;3.90;;;;;;;15.61;100.00;100362.97;5011104;28;20181;-90
2023/06/17 06:09:47;;;;;;;5.10;4.63;;;;;;;15.61;100.00;100366.53;4994916;28;20606;-91
2023/06/17 06:12:21;;;;;;;0.20;0.20;;;;;;;15.56;100.00;100369.50;4994877;28;20283;-90
2023/06/17 06:14:54;;;;;;;0.00;0.00;;;;;;;15.66;100.00;100373.78;4987664;28;20515;-90
2023/06/17 06:17:25;;;;;;;3.70;3.10;;;;;;;15.55;100.00;100370.66;4991789;28;20181;-90
2023/06/17 06:19:59;;;;;;;0.57;0.57;;;;;;;15.60;100.00;100378.72;4994311;28;20679;-90
2023/06/17 06:22:27;;;;;;;3.97;3.67;;;;;;;15.62;100.00;100368.16;4994959;28;20177;-90
2023/06/17 06:24:58;;;;;;;3.30;2.57;;;;;;;15.68;100.00;100374.22;5010680;28;20189;-90
2023/06/17 06:27:31;;;;;;;2.57;2.37;;;;;;;15.43;100.00;100365.97;4995184;28;20173;-90
2023/06/17 06:30:02;;;;;;;6.60;5.30;;;;;;;15.33;100.00;100369.19;4991074;28;20280;-91
2023/06/17 06:32:31;;;;;;;3.40;3.10;;;;;;;15.30;100.00;100371.81;4994523;28;20292;-90
2023/06/17 06:34:59;;;;;;;3.60;3.30;;;;;;;15.32;100.00;100373.06;4994864;28;20185;-91
2023/06/17 06:37:25;;;;;;;2.60;2.27;;;;;;;15.48;100.00;100385.03;4994382;28;20192;-90
2023/06/17 06:39:50;;;;;;;2.23;2.13;;;;;;;15.55;100.00;100383.63;5010408;28;20197;-90
2023/06/17 06:42:15;;;;;;;0.00;0.00;;;;;;;15.78;100.00;100395.78;5010546;28;20192;-90
2023/06/17 06:44:41;;;;;;;8.70;6.97;;;;;;;15.31;100.00;100384.44;4985897;28;20185;-90
2023/06/17 06:47:06;;;;;;;3.43;3.20;;;;;;;15.28;100.00;100383.19;4993750;28;20268;-89
2023/06/17 06:49:34;;;;;;;2.37;0.87;;;;;;;15.36;100.00;100390.53;4993555;28;20224;-90
2023/06/17 06:52:00;;;;;;;1.23;0.73;;;;;;;15.64;100.00;100392.59;4993291;28;20216;-90
2023/06/17 06:54:25;;;;;;;0.23;0.23;;;;;;;15.83;100.00;100394.75;4993724;28;20651;-90
2023/06/17 06:56:53;;;;;;;6.23;4.90;;;;;;;15.96;100.00;100399.06;4990523;28;20683;-90
2023/06/17 06:59:24;;;;;;;0.60;0.53;;;;;;;16.01;100.00;100401.59;4996255;28;20247;-90
2023/06/17 07:01:49;;;;;;;7.13;6.47;;;;;;;16.12;100.00;100402.69;4993134;28;20195;-89
2023/06/17 07:04:14;;;;;;;8.50;6.20;;;;;;;15.94;100.00;100396.69;4993683;28;20177;-90
2023/06/17 07:06:43;;;;;;;0.30;0.10;;;;;;;16.16;100.00;100397.28;4993843;28;20268;-90
2023/06/17 07:09:11;;;;;;;0.47;0.47;;;;;;;16.18;100.00;100394.97;4993803;28;20201;-90
2023/06/17 07:11:37;;;;;;;3.77;3.57;;;;;;;16.36;100.00;100399.06;4993498;28;20189;-90
2023/06/17 07:14:09;;;;;;;0.30;0.30;;;;;;;16.34;100.00;100396.63;4993282;28;20209;-90
2023/06/17 07:16:35;;;;;;;1.77;1.67;;;;;;;16.48;100.00;100398.97;4993950;28;20181;-90
2023/06/17 07:19:11;;;;;;;0.10;0.10;;;;;;;16.46;100.00;100397.72;5010150;28;20552;-90
2023/06/17 07:21:49;;;;;;;0.07;0.07;;;;;;;16.26;100.00;100405.06;4993708;28;20192;-90
2023/06/17 07:24:25;;;;;;;1.03;1.03;;;;;;;16.60;100.00;100406.41;4993703;28;20184;-90
2023/06/17 07:27:13;;;;;;;2.60;2.43;;;;;;;16.72;100.00;100403.59;5001507;28;20196;-90
2023/06/17 07:29:47;;;;;;;0.83;0.57;;;;;;;16.66;100.00;100407.75;4992925;28;20256;-89
2023/06/17 07:32:15;;;;;;;0.50;0.50;;;;;;;16.63;99.36;100394.66;4994049;28;20260;-90
2023/06/17 07:35:10;;;;;;;0.70;0.70;;;;;;;16.71;99.34;100392.94;4984836;28;20183;-90
2023/06/17 07:37:44;;;;;;;1.60;1.50;;;;;;;16.98;100.00;100391.28;4992779;28;20185;-90
2023/06/17 07:40:11;;;;;;;2.90;2.37;;;;;;;16.90;97.69;100393.03;4992900;28;20200;-90
2023/06/17 07:45:27;;;;;;;1.83;1.73;;;;;;;16.68;98.40;100401.91;4993970;28;20181;-90
2023/06/17 07:47:53;;;;;;;2.43;2.23;;;;;;;17.06;97.78;100402.13;4994094;28;20212;-91
2023/06/17 07:50:30;;;;;;;4.87;4.50;;;;;;;17.09;95.58;100400.63;4992567;28;20306;-90
2023/06/17 07:52:58;;;;;;;3.50;0.73;;;;;;;17.21;96.00;100398.56;4992933;28;20189;-90
2023/06/17 07:55:28;;;;;;;2.20;2.07;;;;;;;17.36;97.35;100401.66;4992292;28;20197;-91
2023/06/17 07:57:57;;;;;;;8.93;3.60;;;;;;;17.28;94.45;100397.13;4991685;28;20181;-90
2023/06/17 08:00:26;;;;;;;2.83;1.27;;;;;;;17.21;94.91;100398.56;4992693;28;20643;-90
2023/06/17 08:02:53;;;;;;;1.97;1.87;;;;;;;17.22;94.12;100391.09;4992854;28;20181;-90
2023/06/17 08:05:36;;;;;;;0.10;0.10;;;;;;;16.98;94.63;100388.50;4992374;28;20308;-89
2023/06/17 08:08:02;;;;;;;0.57;0.57;;;;;;;17.28;96.03;100394.38;4992043;28;20251;-90
2023/06/17 08:10:33;;;;;;;3.97;3.67;;;;;;;17.24;94.79;100391.53;4992127;28;20189;-89
2023/06/17 08:13:04;;;;;;;1.80;1.70;;;;;;;17.35;94.39;100395.34;4992382;28;20209;-90
2023/06/17 08:15:30;;;;;;;0.00;0.00;;;;;;;17.38;94.64;100407.66;4992167;28;20199;-90
2023/06/17 08:17:56;;;;;;;0.10;0.10;;;;;;;17.44;93.96;100395.16;4992253;28;20177;-91
2023/06/17 08:20:27;;;;;;;1.73;1.63;;;;;;;17.30;94.40;100401.13;4992012;28;20181;-90
2023/06/17 08:22:55;;;;;;;0.20;0.20;;;;;;;17.59;95.20;100397.09;4992188;28;20231;-90
2023/06/17 08:25:21;;;;;;;2.17;2.07;;;;;;;17.66;94.51;100386.22;4991707;28;20185;-90
2023/06/17 08:27:47;;;;;;;1.67;1.57;;;;;;;17.73;95.38;100394.69;4990698;28;20192;-90
2023/06/17 08:30:24;;;;;;;2.70;2.47;;;;;;;17.72;92.70;100381.22;5007409;28;20209;-90
2023/06/17 08:32:57;;;;;;;3.23;2.47;;;;;;;17.80;92.69;100383.00;4993149;28;20251;-89
2023/06/17 08:35:22;;;;;;;2.83;2.63;;;;;;;17.88;91.92;100375.66;4989451;28;20186;-90
2023/06/17 08:37:50;;;;;;;0.40;0.40;;;;;;;17.99;92.35;100382.22;4991836;28;20301;-90
2023/06/17 08:40:26;;;;;;;0.00;0.00;;;;;;;18.11;92.49;100382.88;4991662;28;20193;-90
2023/06/17 08:43:08;;;;;;;2.73;2.37;;;;;;;18.09;91.25;100384.41;4985188;28;20184;-91
2023/06/17 08:45:49;;;;;;;0.20;0.20;;;;;;;18.31;90.99;100386.41;4990921;28;20265;-91
2023/06/17 08:48:45;;;;;;;0.67;0.67;;;;;;;18.09;89.79;100381.63;4991544;28;20200;-90
2023/06/17 08:51:16;;;;;;;2.83;2.67;;;;;;;18.24;89.22;100382.72;5000760;28;20307;-90
2023/06/17 08:53:47;;;;;;;5.23;3.23;;;;;;;18.40;90.02;100384.25;4996801;28;20205;-90
2023/06/17 08:56:24;;;;;;;0.03;0.03;;;;;;;18.31;89.03;100389.19;4988183;28;20181;-90
2023/06/17 08:58:55;;;;;;;0.00;0.00;;;;;;;18.38;88.92;100385.78;4984585;28;20200;-90
2023/06/17 09:01:28;;;;;;;3.80;3.50;;;;;;;18.55;89.74;100401.13;5008385;28;20177;-90
2023/06/17 09:04:14;;;;;;;0.00;0.00;;;;;;;18.35;87.47;100381.75;4992417;28;20173;-90
2023/06/17 09:06:39;;;;;;;1.40;1.33;;;;;;;18.41;88.05;100387.81;4992062;28;20658;-90
2023/06/17 09:09:07;;;;;;;1.17;1.17;;;;;;;18.38;87.88;100392.09;4995241;28;20259;-90
2023/06/17 09:11:37;;;;;;;3.07;2.87;;;;;;;18.35;88.35;100384.50;4997405;28;20651;-89
2023/06/17 09:14:09;;;;;;;1.60;1.60;;;;;;;18.04;88.41;100382.72;4998116;28;20209;-91
2023/06/17 09:16:35;;;;;;;0.53;0.53;;;;;;;18.37;90.35;100382.22;5012069;28;20228;-90
2023/06/17 09:19:08;;;;;;;1.23;1.23;;;;;;;18.64;89.29;100396.97;4994984;28;20204;-90
2023/06/17 09:21:37;;;;;;;15.03;3.83;;;;;;;18.87;88.84;100388.69;4995477;28;20180;-91
2023/06/17 09:24:14;;;;;;;1.53;1.43;;;;;;;18.99;87.90;100387.72;4995987;28;20173;-90
2023/06/17 09:26:48;;;;;;;0.10;0.10;;;;;;;18.83;86.70;100376.75;4995704;28;20191;-90
2023/06/17 09:29:14;;;;;;;5.87;5.37;;;;;;;18.47;85.85;100380.00;4997036;23;20251;-74
2023/06/17 09:31:51;;;;;;;1.13;1.13;;;;;;;18.61;87.07;100391.34;4979608;28;20577;-74
2023/06/17 09:34:17;;;;;;;2.73;2.53;;;;;;;18.81;86.63;100381.06;4976464;28;20228;-74
2023/06/17 09:36:42;;;;;;;1.07;0.97;;;;;;;19.06;87.09;100384.25;4975173;28;20190;-74
2023/06/17 09:39:10;;;;;;;4.90;3.63;;;;;;;18.83;85.70;100378.72;4976184;28;20193;-74
2023/06/17 09:41:37;;;;;;;3.50;3.20;;;;;;;18.88;86.29;100379.22;4974757;28;20209;-74
2023/06/17 09:44:02;;;;;;;0.30;0.30;;;;;;;18.62;85.12;100365.25;4976243;28;20189;-74
2023/06/17 09:46:29;;;;;;;0.00;0.00;;;;;;;18.54;86.24;100363.53;4976350;28;20543;-74
2023/06/17 09:48:57;;;;;;;0.47;0.47;;;;;;;19.07;86.99;100374.78;4976048;28;20654;-74
2023/06/17 09:51:23;;;;;;;0.00;0.00;;;;;;;19.37;84.97;100372.88;4976112;28;20198;-74
2023/06/17 09:53:50;;;;;;;6.67;3.30;;;;;;;19.37;83.99;100359.03;4976088;28;20201;-74
2023/06/17 09:56:18;;;;;;;8.13;5.43;;;;;;;19.41;83.68;100359.91;4976134;28;20200;-74
2023/06/17 09:58:44;;;;;;;0.20;0.20;;;;;;;19.37;82.74;100361.78;4968081;28;20178;-74
2023/06/17 10:01:11;;;;;;;0.63;0.63;;;;;;;19.81;84.39;100366.81;4975968;28;20272;-74
2023/06/17 10:03:39;;;;;;;3.90;3.30;;;;;;;19.81;81.43;100361.25;4975957;28;20185;-74
2023/06/17 10:06:10;;;;;;;3.90;3.63;;;;;;;20.01;81.36;100364.72;4985994;28;20189;-74
2023/06/17 10:08:36;;;;;;;2.53;2.33;;;;;;;19.60;81.91;100372.88;4975603;28;20186;-74
2023/06/17 10:11:02;;;;;;;1.70;1.60;;;;;;;19.97;82.05;100366.66;4975693;28;20197;-74
2023/06/17 10:13:39;;;;;;;0.97;0.77;;;;;;;19.96;80.70;100371.38;4975694;28;20212;-74
2023/06/17 10:16:08;;;;;;;0.77;0.77;;;;;;;20.00;79.87;100358.34;4975869;28;20193;-74
2023/06/17 10:18:36;;;;;;;0.00;0.00;;;;;;;20.02;79.75;100363.53;4989306;28;20213;-74
2023/06/17 10:21:03;;;;;;;0.93;0.93;;;;;;;20.03;79.45;100354.81;4975135;28;20205;-74
2023/06/17 10:23:30;;;;;;;2.73;2.63;;;;;;;19.91;80.60;100355.06;4975581;28;20265;-74
2023/06/17 10:25:56;;;;;;;1.57;1.47;;;;;;;19.69;78.67;100350.44;4975511;28;20188;-74
2023/06/17 10:28:21;;;;;;;0.43;0.43;;;;;;;19.66;79.68;100351.94;4987408;28;20197;-74
2023/06/17 10:30:51;;;;;;;0.83;0.83;;;;;;;19.76;79.70;100354.06;4975506;28;20603;-74
2023/06/17 10:33:26;;;;;;;4.43;3.53;;;;;;;20.07;80.14;100361.22;4975451;28;20186;-74
2023/06/17 10:36:06;;;;;;;2.27;2.17;;;;;;;20.45;77.92;100359.31;4975478;28;20267;-74
2023/06/17 10:38:34;;;;;;;7.43;4.97;;;;;;;20.63;78.59;100351.94;4975033;28;20213;-74
2023/06/17 10:40:59;;;;;;;2.20;2.10;;;;;;;20.99;78.66;100355.06;4975225;28;20206;-74
2023/06/17 10:43:25;;;;;;;12.77;9.63;;;;;;;20.54;76.56;100334.00;4975496;28;20182;-74
2023/06/17 10:45:55;;;;;;;6.63;4.53;;;;;;;20.76;77.61;100338.59;4975244;28;20325;-74
2023/06/17 10:48:32;;;;;;;14.33;2.93;;;;;;;20.47;77.11;100345.84;4974881;28;20182;-74
2023/06/17 10:51:01;;;;;;;7.03;6.37;;;;;;;20.47;75.73;100335.53;4984287;28;20248;-74
2023/06/17 10:53:32;;;;;;;3.07;2.87;;;;;;;20.69;77.65;100347.66;4974920;28;20632;-74
2023/06/17 10:55:59;;;;;;;7.63;7.00;;;;;;;20.89;76.05;100328.78;4975254;28;20183;-74
2023/06/17 10:58:31;;;;;;;1.13;0.33;;;;;;;21.18;75.62;100329.81;4974710;28;20185;-74
2023/06/17 11:01:15;;;;;;;0.00;0.00;;;;;;;21.23;74.59;100321.09;4983824;28;20574;-74
2023/06/17 11:03:40;;;;;;;0.00;0.00;;;;;;;21.59;75.46;100335.25;4974929;28;20184;-74
2023/06/17 11:06:07;;;;;;;1.57;1.57;;;;;;;21.76;73.40;100317.06;4974867;28;20181;-74
2023/06/17 11:08:35;;;;;;;0.87;0.87;;;;;;;21.70;72.92;100319.44;4974503;28;20187;-74
2023/06/17 11:11:15;;;;;;;0.03;0.03;;;;;;;21.97;72.51;100317.94;4974813;28;20214;-74
2023/06/17 11:13:43;;;;;;;3.97;3.60;;;;;;;21.67;71.71;100321.00;4974452;28;20531;-74
2023/06/17 11:16:08;;;;;;;4.83;4.43;;;;;;;21.48;71.54;100312.16;4974653;28;20189;-74
2023/06/17 11:18:38;;;;;;;0.00;0.00;;;;;;;21.74;71.43;100308.31;4974751;28;20542;-75
2023/06/17 11:21:05;;;;;;;1.80;1.70;;;;;;;22.05;72.47;100318.00;4974452;28;20230;-75
2023/06/17 11:23:31;;;;;;;1.23;0.93;;;;;;;22.19;68.89;100304.16;4974546;28;20203;-75
2023/06/17 11:25:56;;;;;;;0.30;0.30;;;;;;;22.11;69.74;100305.31;4974589;28;20191;-75
2023/06/17 11:28:21;;;;;;;4.10;3.77;;;;;;;21.18;69.40;100293.69;4973899;28;20206;-75
2023/06/17 11:30:49;;;;;;;12.67;2.83;;;;;;;21.25;71.21;100296.53;4974210;28;20206;-75